sensor_id;sensor_type;location;lat;lon;timestamp;temperature;humidity
31735;DHT22;18313;48.518;9.124;2022-10-31T00:01:59;11.40;99.90
31735;DHT22;18313;48.518;9.124;2022-10-31T00:04:44;11.40;99.90
31735;DHT22;18313;48.518;9.124;2022-10-31T00:07:30;11.40;99.90
31735;DHT22;18313;48.518;9.124;2022-10-31T00:10:16;11.40;99.90
31735;DHT22;18313;48.518;9.124;2022-10-31T00:13:01;11.30;99.90
31735;DHT22;18313;48.518;9.124;2022-10-31T00:15:47;11.40;99.90
31735;DHT22;18313;48.518;9.124;2022-10-31T00:18:32;11.50;99.90
31735;DHT22;18313;48.518;9.124;2022-10-31T00:21:19;11.40;99.90
31735;DHT22;18313;48.518;9.124;2022-10-31T00:24:05;11.50;99.90
31735;DHT22;18313;48.518;9.124;2022-10-31T00:26:50;11.40;99.90
31735;DHT22;18313;48.518;9.124;2022-10-31T00:29:36;11.40;99.90
31735;DHT22;18313;48.518;9.124;2022-10-31T00:32:22;11.30;99.90
31735;DHT22;18313;48.518;9.124;2022-10-31T00:35:07;11.30;99.90
31735;DHT22;18313;48.518;9.124;2022-10-31T00:37:53;11.30;99.90
31735;DHT22;18313;48.518;9.124;2022-10-31T00:40:38;11.20;99.90
31735;DHT22;18313;48.518;9.124;2022-10-31T00:43:24;11.10;99.90
31735;DHT22;18313;48.518;9.124;2022-10-31T00:46:10;11.10;99.90
31735;DHT22;18313;48.518;9.124;2022-10-31T00:48:56;11.10;99.90
31735;DHT22;18313;48.518;9.124;2022-10-31T00:51:42;11.00;99.90
31735;DHT22;18313;48.518;9.124;2022-10-31T00:54:28;11.00;99.90
31735;DHT22;18313;48.518;9.124;2022-10-31T00:57:13;10.90;99.90
31735;DHT22;18313;48.518;9.124;2022-10-31T00:59:58;10.90;99.90
31735;DHT22;18313;48.518;9.124;2022-10-31T01:02:44;10.90;99.90
31735;DHT22;18313;48.518;9.124;2022-10-31T01:05:29;10.90;99.90
31735;DHT22;18313;48.518;9.124;2022-10-31T01:08:15;10.80;99.90
31735;DHT22;18313;48.518;9.124;2022-10-31T01:11:11;10.80;99.90
31735;DHT22;18313;48.518;9.124;2022-10-31T01:13:56;10.80;99.90
31735;DHT22;18313;48.518;9.124;2022-10-31T01:16:42;10.80;99.90
31735;DHT22;18313;48.518;9.124;2022-10-31T01:19:27;10.80;99.90
31735;DHT22;18313;48.518;9.124;2022-10-31T01:22:13;10.70;99.90
31735;DHT22;18313;48.518;9.124;2022-10-31T01:24:58;10.70;99.90
31735;DHT22;18313;48.518;9.124;2022-10-31T01:27:44;10.70;99.90
31735;DHT22;18313;48.518;9.124;2022-10-31T01:30:29;10.60;99.90
31735;DHT22;18313;48.518;9.124;2022-10-31T01:33:15;10.60;99.90
31735;DHT22;18313;48.518;9.124;2022-10-31T01:36:00;10.70;99.90
31735;DHT22;18313;48.518;9.124;2022-10-31T01:38:47;10.60;99.90
31735;DHT22;18313;48.518;9.124;2022-10-31T01:41:37;10.60;99.90
31735;DHT22;18313;48.518;9.124;2022-10-31T01:47:16;10.70;99.90
31735;DHT22;18313;48.518;9.124;2022-10-31T01:50:06;10.70;99.90
31735;DHT22;18313;48.518;9.124;2022-10-31T01:52:55;10.70;99.90
31735;DHT22;18313;48.518;9.124;2022-10-31T01:55:43;10.70;99.90
31735;DHT22;18313;48.518;9.124;2022-10-31T01:58:30;10.70;99.90
31735;DHT22;18313;48.518;9.124;2022-10-31T02:01:16;10.60;99.90
31735;DHT22;18313;48.518;9.124;2022-10-31T02:04:04;10.70;99.90
31735;DHT22;18313;48.518;9.124;2022-10-31T02:06:55;10.70;99.90
31735;DHT22;18313;48.518;9.124;2022-10-31T02:09:42;10.70;99.90
31735;DHT22;18313;48.518;9.124;2022-10-31T02:12:30;10.70;99.90
31735;DHT22;18313;48.518;9.124;2022-10-31T02:15:16;10.60;99.90
31735;DHT22;18313;48.518;9.124;2022-10-31T02:18:03;10.60;99.90
31735;DHT22;18313;48.518;9.124;2022-10-31T02:24:14;10.50;99.90
31735;DHT22;18313;48.518;9.124;2022-10-31T02:30:40;10.40;99.90
31735;DHT22;18313;48.518;9.124;2022-10-31T02:33:49;10.50;99.90
31735;DHT22;18313;48.518;9.124;2022-10-31T02:36:53;10.50;99.90
31735;DHT22;18313;48.518;9.124;2022-10-31T02:39:45;10.50;99.90
31735;DHT22;18313;48.518;9.124;2022-10-31T02:42:44;10.50;99.90
31735;DHT22;18313;48.518;9.124;2022-10-31T02:45:38;10.40;99.90
31735;DHT22;18313;48.518;9.124;2022-10-31T02:48:28;10.30;99.90
31735;DHT22;18313;48.518;9.124;2022-10-31T02:51:14;10.30;99.90
31735;DHT22;18313;48.518;9.124;2022-10-31T02:54:00;10.20;99.90
31735;DHT22;18313;48.518;9.124;2022-10-31T02:56:46;10.20;99.90
31735;DHT22;18313;48.518;9.124;2022-10-31T02:59:34;10.00;99.90
31735;DHT22;18313;48.518;9.124;2022-10-31T03:08:41;10.00;99.90
31735;DHT22;18313;48.518;9.124;2022-10-31T03:11:43;10.00;99.90
31735;DHT22;18313;48.518;9.124;2022-10-31T03:14:43;10.00;99.90
31735;DHT22;18313;48.518;9.124;2022-10-31T03:17:36;10.00;99.90
31735;DHT22;18313;48.518;9.124;2022-10-31T03:20:28;10.00;99.90
31735;DHT22;18313;48.518;9.124;2022-10-31T03:23:16;10.00;99.90
31735;DHT22;18313;48.518;9.124;2022-10-31T03:26:05;9.90;99.90
31735;DHT22;18313;48.518;9.124;2022-10-31T03:29:07;9.80;99.90
31735;DHT22;18313;48.518;9.124;2022-10-31T03:31:57;9.80;99.90
31735;DHT22;18313;48.518;9.124;2022-10-31T03:34:45;9.80;99.90
31735;DHT22;18313;48.518;9.124;2022-10-31T03:37:32;9.70;99.90
31735;DHT22;18313;48.518;9.124;2022-10-31T03:40:20;9.70;99.90
31735;DHT22;18313;48.518;9.124;2022-10-31T03:43:11;9.70;99.90
31735;DHT22;18313;48.518;9.124;2022-10-31T03:45:59;9.70;99.90
31735;DHT22;18313;48.518;9.124;2022-10-31T03:48:45;9.70;99.90
31735;DHT22;18313;48.518;9.124;2022-10-31T03:51:46;9.60;99.90
31735;DHT22;18313;48.518;9.124;2022-10-31T03:57:44;9.50;99.90
31735;DHT22;18313;48.518;9.124;2022-10-31T04:00:33;9.60;99.90
31735;DHT22;18313;48.518;9.124;2022-10-31T04:03:32;9.50;99.90
31735;DHT22;18313;48.518;9.124;2022-10-31T04:06:20;9.50;99.90
31735;DHT22;18313;48.518;9.124;2022-10-31T04:09:08;9.40;99.90
31735;DHT22;18313;48.518;9.124;2022-10-31T04:11:56;9.40;99.90
31735;DHT22;18313;48.518;9.124;2022-10-31T04:14:46;9.40;99.90
31735;DHT22;18313;48.518;9.124;2022-10-31T04:17:36;9.30;99.90
31735;DHT22;18313;48.518;9.124;2022-10-31T04:20:40;9.30;99.90
31735;DHT22;18313;48.518;9.124;2022-10-31T04:23:27;9.40;99.90
31735;DHT22;18313;48.518;9.124;2022-10-31T04:26:13;9.40;99.90
31735;DHT22;18313;48.518;9.124;2022-10-31T04:28:59;9.30;99.90
31735;DHT22;18313;48.518;9.124;2022-10-31T04:31:45;9.30;99.90
31735;DHT22;18313;48.518;9.124;2022-10-31T04:34:30;9.30;99.90
31735;DHT22;18313;48.518;9.124;2022-10-31T04:37:16;9.40;99.90
31735;DHT22;18313;48.518;9.124;2022-10-31T04:40:02;9.50;99.90
31735;DHT22;18313;48.518;9.124;2022-10-31T04:42:48;9.50;99.90
31735;DHT22;18313;48.518;9.124;2022-10-31T04:45:34;9.50;99.90
31735;DHT22;18313;48.518;9.124;2022-10-31T04:48:19;9.50;99.90
31735;DHT22;18313;48.518;9.124;2022-10-31T04:51:05;9.50;99.90
31735;DHT22;18313;48.518;9.124;2022-10-31T04:53:51;9.50;99.90
31735;DHT22;18313;48.518;9.124;2022-10-31T04:56:36;9.50;99.90
31735;DHT22;18313;48.518;9.124;2022-10-31T04:59:22;9.30;99.90
31735;DHT22;18313;48.518;9.124;2022-10-31T05:02:08;9.20;99.90
31735;DHT22;18313;48.518;9.124;2022-10-31T05:04:54;9.20;99.90
31735;DHT22;18313;48.518;9.124;2022-10-31T05:07:44;9.10;99.90
31735;DHT22;18313;48.518;9.124;2022-10-31T05:10:31;9.10;99.90
31735;DHT22;18313;48.518;9.124;2022-10-31T05:13:16;9.10;99.90
31735;DHT22;18313;48.518;9.124;2022-10-31T05:16:02;9.10;99.90
31735;DHT22;18313;48.518;9.124;2022-10-31T05:18:48;9.00;99.90
31735;DHT22;18313;48.518;9.124;2022-10-31T05:21:33;8.90;99.90
31735;DHT22;18313;48.518;9.124;2022-10-31T05:24:20;8.90;99.90
31735;DHT22;18313;48.518;9.124;2022-10-31T05:27:06;8.90;99.90
31735;DHT22;18313;48.518;9.124;2022-10-31T05:29:52;8.90;99.90
31735;DHT22;18313;48.518;9.124;2022-10-31T05:32:43;8.90;99.90
31735;DHT22;18313;48.518;9.124;2022-10-31T05:35:31;8.90;99.90
31735;DHT22;18313;48.518;9.124;2022-10-31T05:38:16;8.90;99.90
31735;DHT22;18313;48.518;9.124;2022-10-31T05:41:02;8.80;99.90
31735;DHT22;18313;48.518;9.124;2022-10-31T05:43:47;8.70;99.90
31735;DHT22;18313;48.518;9.124;2022-10-31T05:46:33;8.70;99.90
31735;DHT22;18313;48.518;9.124;2022-10-31T05:49:18;8.70;99.90
31735;DHT22;18313;48.518;9.124;2022-10-31T05:52:04;8.70;99.90
31735;DHT22;18313;48.518;9.124;2022-10-31T05:54:50;8.60;99.90
31735;DHT22;18313;48.518;9.124;2022-10-31T05:57:35;8.60;99.90
31735;DHT22;18313;48.518;9.124;2022-10-31T06:00:22;8.60;99.90
31735;DHT22;18313;48.518;9.124;2022-10-31T06:03:08;8.60;99.90
31735;DHT22;18313;48.518;9.124;2022-10-31T06:05:54;8.60;99.90
31735;DHT22;18313;48.518;9.124;2022-10-31T06:08:40;8.70;99.90
31735;DHT22;18313;48.518;9.124;2022-10-31T06:11:26;8.70;99.90
31735;DHT22;18313;48.518;9.124;2022-10-31T06:14:11;8.70;99.90
31735;DHT22;18313;48.518;9.124;2022-10-31T06:16:57;8.70;99.90
31735;DHT22;18313;48.518;9.124;2022-10-31T06:19:44;8.80;99.90
31735;DHT22;18313;48.518;9.124;2022-10-31T06:22:30;8.80;99.90
31735;DHT22;18313;48.518;9.124;2022-10-31T06:25:16;8.80;99.90
31735;DHT22;18313;48.518;9.124;2022-10-31T06:28:01;8.70;99.90
31735;DHT22;18313;48.518;9.124;2022-10-31T06:30:47;8.80;99.90
31735;DHT22;18313;48.518;9.124;2022-10-31T06:33:33;8.80;99.90
31735;DHT22;18313;48.518;9.124;2022-10-31T06:36:18;8.70;99.90
31735;DHT22;18313;48.518;9.124;2022-10-31T06:39:04;8.70;99.90
31735;DHT22;18313;48.518;9.124;2022-10-31T06:41:49;8.70;99.90
31735;DHT22;18313;48.518;9.124;2022-10-31T06:44:35;8.70;99.90
31735;DHT22;18313;48.518;9.124;2022-10-31T06:47:21;8.80;99.90
31735;DHT22;18313;48.518;9.124;2022-10-31T06:50:09;8.80;99.90
31735;DHT22;18313;48.518;9.124;2022-10-31T06:52:56;8.80;99.90
31735;DHT22;18313;48.518;9.124;2022-10-31T06:55:43;8.80;99.90
31735;DHT22;18313;48.518;9.124;2022-10-31T06:58:28;8.90;99.90
31735;DHT22;18313;48.518;9.124;2022-10-31T07:01:14;9.00;99.90
31735;DHT22;18313;48.518;9.124;2022-10-31T07:04:00;9.00;99.90
31735;DHT22;18313;48.518;9.124;2022-10-31T07:06:46;9.00;99.90
31735;DHT22;18313;48.518;9.124;2022-10-31T07:09:36;9.10;99.90
31735;DHT22;18313;48.518;9.124;2022-10-31T07:12:21;9.20;99.90
31735;DHT22;18313;48.518;9.124;2022-10-31T07:15:07;9.20;99.90
31735;DHT22;18313;48.518;9.124;2022-10-31T07:17:59;9.30;99.90
31735;DHT22;18313;48.518;9.124;2022-10-31T07:20:47;9.40;99.90
31735;DHT22;18313;48.518;9.124;2022-10-31T07:23:32;9.40;99.90
31735;DHT22;18313;48.518;9.124;2022-10-31T07:26:18;9.50;99.90
31735;DHT22;18313;48.518;9.124;2022-10-31T07:29:03;9.60;99.90
31735;DHT22;18313;48.518;9.124;2022-10-31T07:31:49;9.70;99.90
31735;DHT22;18313;48.518;9.124;2022-10-31T07:34:34;9.70;99.90
31735;DHT22;18313;48.518;9.124;2022-10-31T07:37:20;9.90;99.90
31735;DHT22;18313;48.518;9.124;2022-10-31T07:40:07;10.00;99.90
31735;DHT22;18313;48.518;9.124;2022-10-31T07:42:53;10.00;99.90
31735;DHT22;18313;48.518;9.124;2022-10-31T07:45:39;10.10;99.90
31735;DHT22;18313;48.518;9.124;2022-10-31T07:48:24;10.10;99.90
31735;DHT22;18313;48.518;9.124;2022-10-31T07:51:10;10.20;99.90
31735;DHT22;18313;48.518;9.124;2022-10-31T07:53:55;10.30;99.90
31735;DHT22;18313;48.518;9.124;2022-10-31T07:56:41;10.30;99.90
31735;DHT22;18313;48.518;9.124;2022-10-31T07:59:26;10.40;99.90
31735;DHT22;18313;48.518;9.124;2022-10-31T08:02:12;10.50;99.90
31735;DHT22;18313;48.518;9.124;2022-10-31T08:04:58;10.70;99.90
31735;DHT22;18313;48.518;9.124;2022-10-31T08:07:45;10.70;99.90
31735;DHT22;18313;48.518;9.124;2022-10-31T08:10:31;10.80;99.90
31735;DHT22;18313;48.518;9.124;2022-10-31T08:13:17;11.00;99.90
31735;DHT22;18313;48.518;9.124;2022-10-31T08:16:03;11.10;99.90
31735;DHT22;18313;48.518;9.124;2022-10-31T08:18:49;11.20;99.90
31735;DHT22;18313;48.518;9.124;2022-10-31T08:21:35;11.40;99.90
31735;DHT22;18313;48.518;9.124;2022-10-31T08:24:21;11.60;99.90
31735;DHT22;18313;48.518;9.124;2022-10-31T08:27:07;11.80;99.90
31735;DHT22;18313;48.518;9.124;2022-10-31T08:29:52;11.90;99.90
31735;DHT22;18313;48.518;9.124;2022-10-31T08:32:37;12.00;99.90
31735;DHT22;18313;48.518;9.124;2022-10-31T08:35:23;12.10;99.90
31735;DHT22;18313;48.518;9.124;2022-10-31T08:38:10;12.10;99.90
31735;DHT22;18313;48.518;9.124;2022-10-31T08:40:56;12.20;99.90
31735;DHT22;18313;48.518;9.124;2022-10-31T08:43:41;12.30;99.90
31735;DHT22;18313;48.518;9.124;2022-10-31T08:46:27;12.50;99.90
31735;DHT22;18313;48.518;9.124;2022-10-31T08:49:13;12.60;99.90
31735;DHT22;18313;48.518;9.124;2022-10-31T08:51:58;12.70;99.90
31735;DHT22;18313;48.518;9.124;2022-10-31T08:54:44;12.80;99.90
31735;DHT22;18313;48.518;9.124;2022-10-31T08:57:29;12.90;99.90
31735;DHT22;18313;48.518;9.124;2022-10-31T09:00:15;12.90;99.90
31735;DHT22;18313;48.518;9.124;2022-10-31T09:03:10;13.00;99.90
31735;DHT22;18313;48.518;9.124;2022-10-31T09:05:58;13.10;99.90
31735;DHT22;18313;48.518;9.124;2022-10-31T09:08:44;13.10;99.90
31735;DHT22;18313;48.518;9.124;2022-10-31T09:11:31;13.20;99.90
31735;DHT22;18313;48.518;9.124;2022-10-31T09:14:16;13.50;99.90
31735;DHT22;18313;48.518;9.124;2022-10-31T09:17:02;13.60;99.90
31735;DHT22;18313;48.518;9.124;2022-10-31T09:19:47;13.70;99.90
31735;DHT22;18313;48.518;9.124;2022-10-31T09:22:33;13.90;99.90
31735;DHT22;18313;48.518;9.124;2022-10-31T09:25:19;14.00;99.90
31735;DHT22;18313;48.518;9.124;2022-10-31T09:28:05;14.10;99.90
31735;DHT22;18313;48.518;9.124;2022-10-31T09:30:53;14.20;99.90
31735;DHT22;18313;48.518;9.124;2022-10-31T09:33:38;14.40;99.90
31735;DHT22;18313;48.518;9.124;2022-10-31T09:36:24;14.60;99.90
31735;DHT22;18313;48.518;9.124;2022-10-31T09:39:09;14.70;99.90
31735;DHT22;18313;48.518;9.124;2022-10-31T09:45:18;15.10;99.90
31735;DHT22;18313;48.518;9.124;2022-10-31T09:48:27;15.20;99.90
31735;DHT22;18313;48.518;9.124;2022-10-31T09:54:49;15.40;99.90
31735;DHT22;18313;48.518;9.124;2022-10-31T09:57:37;15.50;99.90
31735;DHT22;18313;48.518;9.124;2022-10-31T10:00:23;15.70;99.90
31735;DHT22;18313;48.518;9.124;2022-10-31T10:06:19;16.10;99.90
31735;DHT22;18313;48.518;9.124;2022-10-31T10:09:08;16.30;99.90
31735;DHT22;18313;48.518;9.124;2022-10-31T10:15:36;16.50;99.90
31735;DHT22;18313;48.518;9.124;2022-10-31T10:27:12;16.80;99.90
31735;DHT22;18313;48.518;9.124;2022-10-31T10:30:17;17.00;99.90
31735;DHT22;18313;48.518;9.124;2022-10-31T10:33:08;17.10;99.90
31735;DHT22;18313;48.518;9.124;2022-10-31T10:36:04;17.10;99.90
31735;DHT22;18313;48.518;9.124;2022-10-31T10:38:58;17.20;99.90
31735;DHT22;18313;48.518;9.124;2022-10-31T10:41:47;17.30;99.90
31735;DHT22;18313;48.518;9.124;2022-10-31T10:44:52;17.40;99.90
31735;DHT22;18313;48.518;9.124;2022-10-31T10:48:15;17.40;99.90
31735;DHT22;18313;48.518;9.124;2022-10-31T10:51:01;17.60;99.90
31735;DHT22;18313;48.518;9.124;2022-10-31T10:57:09;18.10;99.90
31735;DHT22;18313;48.518;9.124;2022-10-31T11:00:00;18.40;99.90
31735;DHT22;18313;48.518;9.124;2022-10-31T11:02:47;18.70;99.90
31735;DHT22;18313;48.518;9.124;2022-10-31T11:11:24;19.10;99.90
31735;DHT22;18313;48.518;9.124;2022-10-31T11:14:15;19.20;99.90
31735;DHT22;18313;48.518;9.124;2022-10-31T11:23:18;19.70;99.90
31735;DHT22;18313;48.518;9.124;2022-10-31T11:26:05;19.90;99.90
31735;DHT22;18313;48.518;9.124;2022-10-31T11:28:58;19.80;99.90
31735;DHT22;18313;48.518;9.124;2022-10-31T11:31:45;19.90;99.90
31735;DHT22;18313;48.518;9.124;2022-10-31T11:34:42;20.00;99.90
31735;DHT22;18313;48.518;9.124;2022-10-31T11:37:34;20.10;99.90
31735;DHT22;18313;48.518;9.124;2022-10-31T11:40:26;20.20;99.90
31735;DHT22;18313;48.518;9.124;2022-10-31T11:43:15;20.30;99.90
31735;DHT22;18313;48.518;9.124;2022-10-31T11:46:16;20.40;99.90
31735;DHT22;18313;48.518;9.124;2022-10-31T11:49:04;20.40;99.90
31735;DHT22;18313;48.518;9.124;2022-10-31T11:51:53;20.50;99.90
31735;DHT22;18313;48.518;9.124;2022-10-31T11:54:59;20.60;99.90
31735;DHT22;18313;48.518;9.124;2022-10-31T11:57:48;20.70;99.90
31735;DHT22;18313;48.518;9.124;2022-10-31T12:00:37;20.70;99.90
31735;DHT22;18313;48.518;9.124;2022-10-31T12:06:22;20.70;99.90
31735;DHT22;18313;48.518;9.124;2022-10-31T12:15:22;20.60;99.90
31735;DHT22;18313;48.518;9.124;2022-10-31T12:21:36;20.30;99.90
31735;DHT22;18313;48.518;9.124;2022-10-31T12:24:45;20.20;99.90
31735;DHT22;18313;48.518;9.124;2022-10-31T12:30:58;20.00;99.90
31735;DHT22;18313;48.518;9.124;2022-10-31T12:34:30;19.90;99.90
31735;DHT22;18313;48.518;9.124;2022-10-31T12:37:46;19.70;99.90
31735;DHT22;18313;48.518;9.124;2022-10-31T12:46:57;19.60;99.90
31735;DHT22;18313;48.518;9.124;2022-10-31T12:53:26;19.60;99.90
31735;DHT22;18313;48.518;9.124;2022-10-31T12:56:23;19.60;99.90
31735;DHT22;18313;48.518;9.124;2022-10-31T13:00:04;19.50;99.90
31735;DHT22;18313;48.518;9.124;2022-10-31T13:02:39;19.50;99.90
31735;DHT22;18313;48.518;9.124;2022-10-31T13:05:40;19.50;99.90
31735;DHT22;18313;48.518;9.124;2022-10-31T13:08:35;19.60;99.90
31735;DHT22;18313;48.518;9.124;2022-10-31T13:11:40;19.60;99.90
31735;DHT22;18313;48.518;9.124;2022-10-31T13:14:33;19.60;99.90
31735;DHT22;18313;48.518;9.124;2022-10-31T13:17:26;19.60;99.90
31735;DHT22;18313;48.518;9.124;2022-10-31T13:23:30;19.80;99.90
31735;DHT22;18313;48.518;9.124;2022-10-31T13:26:40;20.00;99.90
31735;DHT22;18313;48.518;9.124;2022-10-31T13:29:34;20.00;99.90
31735;DHT22;18313;48.518;9.124;2022-10-31T13:32:21;20.00;99.90
31735;DHT22;18313;48.518;9.124;2022-10-31T13:35:40;20.00;99.90
31735;DHT22;18313;48.518;9.124;2022-10-31T13:41:51;20.20;99.90
31735;DHT22;18313;48.518;9.124;2022-10-31T13:44:38;20.40;99.90
31735;DHT22;18313;48.518;9.124;2022-10-31T13:47:26;20.30;99.90
31735;DHT22;18313;48.518;9.124;2022-10-31T13:50:30;20.30;99.90
31735;DHT22;18313;48.518;9.124;2022-10-31T13:53:21;20.30;99.90
31735;DHT22;18313;48.518;9.124;2022-10-31T13:56:26;20.10;99.90
31735;DHT22;18313;48.518;9.124;2022-10-31T13:59:15;20.00;99.90
31735;DHT22;18313;48.518;9.124;2022-10-31T14:02:16;20.20;99.90
31735;DHT22;18313;48.518;9.124;2022-10-31T14:05:03;20.30;99.90
31735;DHT22;18313;48.518;9.124;2022-10-31T14:07:55;20.40;99.90
31735;DHT22;18313;48.518;9.124;2022-10-31T14:10:50;20.60;99.90
31735;DHT22;18313;48.518;9.124;2022-10-31T14:13:45;20.80;99.90
31735;DHT22;18313;48.518;9.124;2022-10-31T14:16:31;20.90;99.90
31735;DHT22;18313;48.518;9.124;2022-10-31T14:19:18;20.90;99.90
31735;DHT22;18313;48.518;9.124;2022-10-31T14:22:22;20.80;99.90
31735;DHT22;18313;48.518;9.124;2022-10-31T14:25:31;20.70;99.90
31735;DHT22;18313;48.518;9.124;2022-10-31T14:28:32;20.60;99.90
31735;DHT22;18313;48.518;9.124;2022-10-31T14:31:29;20.50;99.90
31735;DHT22;18313;48.518;9.124;2022-10-31T14:41:01;20.20;99.90
31735;DHT22;18313;48.518;9.124;2022-10-31T14:53:27;20.60;99.90
31735;DHT22;18313;48.518;9.124;2022-10-31T14:56:27;20.70;99.90
31735;DHT22;18313;48.518;9.124;2022-10-31T14:59:18;20.80;99.90
31735;DHT22;18313;48.518;9.124;2022-10-31T15:02:13;20.90;99.90
31735;DHT22;18313;48.518;9.124;2022-10-31T15:05:00;20.80;99.90
31735;DHT22;18313;48.518;9.124;2022-10-31T15:07:54;20.60;99.90
31735;DHT22;18313;48.518;9.124;2022-10-31T15:10:44;20.50;99.90
31735;DHT22;18313;48.518;9.124;2022-10-31T15:13:31;20.30;99.90
31735;DHT22;18313;48.518;9.124;2022-10-31T15:16:20;20.10;99.90
31735;DHT22;18313;48.518;9.124;2022-10-31T15:19:10;20.00;99.90
31735;DHT22;18313;48.518;9.124;2022-10-31T15:21:57;19.70;99.90
31735;DHT22;18313;48.518;9.124;2022-10-31T15:24:44;19.50;99.90
31735;DHT22;18313;48.518;9.124;2022-10-31T15:27:30;19.40;99.90
31735;DHT22;18313;48.518;9.124;2022-10-31T15:30:25;19.20;99.90
31735;DHT22;18313;48.518;9.124;2022-10-31T15:33:29;19.00;99.90
31735;DHT22;18313;48.518;9.124;2022-10-31T15:36:24;18.90;99.90
31735;DHT22;18313;48.518;9.124;2022-10-31T15:39:20;18.70;99.90
31735;DHT22;18313;48.518;9.124;2022-10-31T15:42:28;18.60;99.90
31735;DHT22;18313;48.518;9.124;2022-10-31T15:48:12;18.30;99.90
31735;DHT22;18313;48.518;9.124;2022-10-31T15:50:58;18.40;99.90
31735;DHT22;18313;48.518;9.124;2022-10-31T15:53:50;18.20;99.90
31735;DHT22;18313;48.518;9.124;2022-10-31T15:56:36;18.20;99.90
31735;DHT22;18313;48.518;9.124;2022-10-31T15:59:25;18.00;99.90
31735;DHT22;18313;48.518;9.124;2022-10-31T16:02:14;17.80;99.90
31735;DHT22;18313;48.518;9.124;2022-10-31T16:05:01;17.70;99.90
31735;DHT22;18313;48.518;9.124;2022-10-31T16:07:51;17.60;99.90
31735;DHT22;18313;48.518;9.124;2022-10-31T16:10:37;17.40;99.90
31735;DHT22;18313;48.518;9.124;2022-10-31T16:13:35;17.40;99.90
31735;DHT22;18313;48.518;9.124;2022-10-31T16:16:21;17.20;99.90
31735;DHT22;18313;48.518;9.124;2022-10-31T16:19:26;17.20;99.90
31735;DHT22;18313;48.518;9.124;2022-10-31T16:22:18;17.10;99.90
31735;DHT22;18313;48.518;9.124;2022-10-31T16:25:14;17.00;99.90
31735;DHT22;18313;48.518;9.124;2022-10-31T16:28:12;17.00;99.90
31735;DHT22;18313;48.518;9.124;2022-10-31T16:30:58;16.90;99.90
31735;DHT22;18313;48.518;9.124;2022-10-31T16:33:43;16.70;99.90
31735;DHT22;18313;48.518;9.124;2022-10-31T16:36:31;16.50;99.90
31735;DHT22;18313;48.518;9.124;2022-10-31T16:39:20;16.40;99.90
31735;DHT22;18313;48.518;9.124;2022-10-31T16:42:08;16.40;99.90
31735;DHT22;18313;48.518;9.124;2022-10-31T16:44:55;16.20;99.90
31735;DHT22;18313;48.518;9.124;2022-10-31T16:47:41;16.10;99.90
31735;DHT22;18313;48.518;9.124;2022-10-31T16:50:27;16.00;99.90
31735;DHT22;18313;48.518;9.124;2022-10-31T16:53:13;15.80;99.90
31735;DHT22;18313;48.518;9.124;2022-10-31T16:56:02;15.70;99.90
31735;DHT22;18313;48.518;9.124;2022-10-31T16:58:49;15.70;99.90
31735;DHT22;18313;48.518;9.124;2022-10-31T17:01:35;15.90;99.90
31735;DHT22;18313;48.518;9.124;2022-10-31T17:04:20;15.70;99.90
31735;DHT22;18313;48.518;9.124;2022-10-31T17:07:06;15.50;99.90
31735;DHT22;18313;48.518;9.124;2022-10-31T17:09:52;15.40;99.90
31735;DHT22;18313;48.518;9.124;2022-10-31T17:12:40;15.30;99.90
31735;DHT22;18313;48.518;9.124;2022-10-31T17:15:27;15.20;99.90
31735;DHT22;18313;48.518;9.124;2022-10-31T17:18:14;15.10;99.90
31735;DHT22;18313;48.518;9.124;2022-10-31T17:21:03;15.00;99.90
31735;DHT22;18313;48.518;9.124;2022-10-31T17:23:50;15.10;99.90
31735;DHT22;18313;48.518;9.124;2022-10-31T17:26:35;15.10;99.90
31735;DHT22;18313;48.518;9.124;2022-10-31T17:29:21;14.90;99.90
31735;DHT22;18313;48.518;9.124;2022-10-31T17:32:06;14.80;99.90
31735;DHT22;18313;48.518;9.124;2022-10-31T17:34:52;14.70;99.90
31735;DHT22;18313;48.518;9.124;2022-10-31T17:37:39;14.60;99.90
31735;DHT22;18313;48.518;9.124;2022-10-31T17:40:27;14.70;99.90
31735;DHT22;18313;48.518;9.124;2022-10-31T17:43:12;14.50;99.90
31735;DHT22;18313;48.518;9.124;2022-10-31T17:45:59;14.40;99.90
31735;DHT22;18313;48.518;9.124;2022-10-31T17:48:45;14.40;99.90
31735;DHT22;18313;48.518;9.124;2022-10-31T17:51:30;14.30;99.90
31735;DHT22;18313;48.518;9.124;2022-10-31T17:54:16;14.50;99.90
31735;DHT22;18313;48.518;9.124;2022-10-31T17:57:02;14.40;99.90
31735;DHT22;18313;48.518;9.124;2022-10-31T17:59:48;14.40;99.90
31735;DHT22;18313;48.518;9.124;2022-10-31T18:02:35;14.30;99.90
31735;DHT22;18313;48.518;9.124;2022-10-31T18:05:21;14.20;99.90
31735;DHT22;18313;48.518;9.124;2022-10-31T18:08:07;14.20;99.90
31735;DHT22;18313;48.518;9.124;2022-10-31T18:10:53;14.10;99.90
31735;DHT22;18313;48.518;9.124;2022-10-31T18:13:39;13.90;99.90
31735;DHT22;18313;48.518;9.124;2022-10-31T18:16:25;13.80;99.90
31735;DHT22;18313;48.518;9.124;2022-10-31T18:19:14;13.70;99.90
31735;DHT22;18313;48.518;9.124;2022-10-31T18:22:02;13.60;99.90
31735;DHT22;18313;48.518;9.124;2022-10-31T18:24:48;13.50;99.90
31735;DHT22;18313;48.518;9.124;2022-10-31T18:27:33;13.60;99.90
31735;DHT22;18313;48.518;9.124;2022-10-31T18:30:19;13.70;99.90
31735;DHT22;18313;48.518;9.124;2022-10-31T18:33:05;13.60;99.90
31735;DHT22;18313;48.518;9.124;2022-10-31T18:35:50;13.50;99.90
31735;DHT22;18313;48.518;9.124;2022-10-31T18:38:41;13.50;99.90
31735;DHT22;18313;48.518;9.124;2022-10-31T18:41:27;13.50;99.90
31735;DHT22;18313;48.518;9.124;2022-10-31T18:44:12;13.40;99.90
31735;DHT22;18313;48.518;9.124;2022-10-31T18:46:58;13.40;99.90
31735;DHT22;18313;48.518;9.124;2022-10-31T18:49:44;13.30;99.90
31735;DHT22;18313;48.518;9.124;2022-10-31T18:52:29;13.40;99.90
31735;DHT22;18313;48.518;9.124;2022-10-31T18:55:16;13.30;99.90
31735;DHT22;18313;48.518;9.124;2022-10-31T18:58:01;13.20;99.90
31735;DHT22;18313;48.518;9.124;2022-10-31T19:00:47;13.20;99.90
31735;DHT22;18313;48.518;9.124;2022-10-31T19:03:33;13.30;99.90
31735;DHT22;18313;48.518;9.124;2022-10-31T19:06:19;13.30;99.90
31735;DHT22;18313;48.518;9.124;2022-10-31T19:09:06;13.20;99.90
31735;DHT22;18313;48.518;9.124;2022-10-31T19:11:53;13.10;99.90
31735;DHT22;18313;48.518;9.124;2022-10-31T19:14:39;13.10;99.90
31735;DHT22;18313;48.518;9.124;2022-10-31T19:17:24;13.00;99.90
31735;DHT22;18313;48.518;9.124;2022-10-31T19:20:10;13.00;99.90
31735;DHT22;18313;48.518;9.124;2022-10-31T19:22:56;12.90;99.90
31735;DHT22;18313;48.518;9.124;2022-10-31T19:25:42;12.90;99.90
31735;DHT22;18313;48.518;9.124;2022-10-31T19:28:30;12.80;99.90
31735;DHT22;18313;48.518;9.124;2022-10-31T19:31:16;12.80;99.90
31735;DHT22;18313;48.518;9.124;2022-10-31T19:34:03;12.70;99.90
31735;DHT22;18313;48.518;9.124;2022-10-31T19:36:48;12.80;99.90
31735;DHT22;18313;48.518;9.124;2022-10-31T19:39:34;12.80;99.90
31735;DHT22;18313;48.518;9.124;2022-10-31T19:42:27;12.80;99.90